createdAt,value
2023-04-25T00:04:46.023Z,5.82
2023-04-25T00:09:48.891Z,5.82
2023-04-25T00:14:53.772Z,5.80
2023-04-25T00:19:56.897Z,5.83
2023-04-25T00:25:01.160Z,5.84
2023-04-25T00:30:06.108Z,5.88
2023-04-25T00:35:09.426Z,5.84
2023-04-25T00:40:12.745Z,5.86
2023-04-25T00:45:17.218Z,5.84
2023-04-25T00:50:20.025Z,5.73
2023-04-25T00:55:23.012Z,5.71
2023-04-25T01:00:27.154Z,5.69
2023-04-25T01:05:29.820Z,5.73
2023-04-25T01:10:32.480Z,5.70
2023-04-25T01:15:37.385Z,5.68
2023-04-25T01:20:40.703Z,5.78
2023-04-25T01:25:44.949Z,5.60
2023-04-25T01:30:48.323Z,5.87
2023-04-25T01:35:51.129Z,5.73
2023-04-25T01:40:58.211Z,5.57
2023-04-25T01:46:01.015Z,5.59
2023-04-25T01:51:03.952Z,5.61
2023-04-25T01:56:08.876Z,5.64
2023-04-25T02:01:12.410Z,5.59
2023-04-25T02:06:24.082Z,5.56
2023-04-25T02:11:30.464Z,5.65
2023-04-25T02:16:53.001Z,5.70
2023-04-25T02:21:56.024Z,5.50
2023-04-25T02:27:00.352Z,5.61
2023-04-25T02:32:03.091Z,5.52
2023-04-25T02:37:05.788Z,5.63
2023-04-25T02:42:09.847Z,5.60
2023-04-25T02:47:12.574Z,5.70
2023-04-25T02:52:15.348Z,5.73
2023-04-25T02:57:20.576Z,5.68
2023-04-25T03:02:23.319Z,5.67
2023-04-25T03:07:26.143Z,5.77
2023-04-25T03:12:30.304Z,5.72
2023-04-25T03:17:33.400Z,5.69
2023-04-25T03:22:36.250Z,5.76
2023-04-25T03:27:40.350Z,5.66
2023-04-25T03:32:43.835Z,5.58
2023-04-25T03:37:46.758Z,5.47
2023-04-25T03:42:56.026Z,5.58
2023-04-25T03:47:59.418Z,5.55
2023-04-25T03:53:04.470Z,5.53
2023-04-25T03:58:19.037Z,5.56
2023-04-25T04:03:22.168Z,5.57
2023-04-25T04:08:25.804Z,5.58
2023-04-25T04:13:30.757Z,5.44
2023-04-25T04:18:34.175Z,5.50
2023-04-25T04:23:39.684Z,5.42
2023-04-25T04:28:45.669Z,5.47
2023-04-25T04:33:59.428Z,5.45
2023-04-25T04:39:04.205Z,5.52
2023-04-25T04:44:22.458Z,5.50
2023-04-25T04:49:43.739Z,5.50
2023-04-25T04:54:58.925Z,5.40
2023-04-25T05:00:21.797Z,5.38
2023-04-25T05:05:43.277Z,5.43
2023-04-25T05:11:03.914Z,5.48
2023-04-25T05:16:14.696Z,5.42
2023-04-25T05:21:29.188Z,5.53
2023-04-25T05:26:52.217Z,5.49
2023-04-25T05:32:16.202Z,5.55
2023-04-25T05:37:19.216Z,5.70
2023-04-25T05:42:30.943Z,5.59
2023-04-25T05:47:53.474Z,5.68
2023-04-25T05:53:14.948Z,5.61
2023-04-25T05:58:19.810Z,5.80
2023-04-25T06:03:24.180Z,5.83
2023-04-25T06:08:27.603Z,5.74
2023-04-25T06:13:30.307Z,5.94
2023-04-25T06:18:34.451Z,5.99
2023-04-25T06:23:37.179Z,5.98
2023-04-25T06:28:43.168Z,6.20
2023-04-25T06:33:49.318Z,6.26
2023-04-25T06:38:52.415Z,6.19
2023-04-25T06:43:55.368Z,6.29
2023-04-25T06:49:09.935Z,6.16
2023-04-25T06:54:13.073Z,6.42
2023-04-25T06:59:24.851Z,6.60
2023-04-25T07:04:29.182Z,6.53
2023-04-25T07:09:35.013Z,6.65
2023-04-25T07:14:37.892Z,6.52
2023-04-25T07:19:42.968Z,6.54
2023-04-25T07:24:49.477Z,6.48
2023-04-25T07:29:54.998Z,6.71
2023-04-25T07:35:00.753Z,6.65
2023-04-25T07:40:04.749Z,6.73
2023-04-25T07:45:10.190Z,6.76
2023-04-25T07:50:15.632Z,6.97
2023-04-25T07:55:18.734Z,7.09
2023-04-25T08:00:33.390Z,7.01
2023-04-25T08:06:05.702Z,7.20
2023-04-25T08:11:16.904Z,7.39
2023-04-25T08:16:19.825Z,7.31
2023-04-25T08:21:24.421Z,7.21
2023-04-25T08:26:29.011Z,7.30
2023-04-25T08:31:32.140Z,7.22
2023-04-25T08:36:40.085Z,7.25
2023-04-25T08:42:07.314Z,7.22
2023-04-25T08:47:10.191Z,7.67
2023-04-25T08:52:24.058Z,7.98
2023-04-25T08:57:28.621Z,7.81
2023-04-25T09:02:33.230Z,7.79
2023-04-25T09:07:37.800Z,7.70
2023-04-25T09:12:43.229Z,7.28
2023-04-25T09:17:46.103Z,7.11
2023-04-25T09:22:51.079Z,7.05
2023-04-25T09:27:55.149Z,7.28
2023-04-25T09:33:12.839Z,7.37
2023-04-25T09:38:22.312Z,7.82
2023-04-25T09:43:35.991Z,7.56
2023-04-25T09:48:39.047Z,7.59
2023-04-25T09:53:44.854Z,7.68
2023-04-25T09:58:56.642Z,7.58
2023-04-25T10:04:00.166Z,7.86
2023-04-25T10:09:35.112Z,7.91
2023-04-25T10:14:38.154Z,7.77
2023-04-25T10:19:41.439Z,9.03
2023-04-25T10:24:47.281Z,9.16
2023-04-25T10:30:03.387Z,8.35
2023-04-25T10:35:14.084Z,7.94
2023-04-25T10:40:23.827Z,7.65
2023-04-25T10:45:27.844Z,7.34
2023-04-25T10:50:39.580Z,7.57
2023-04-25T10:55:53.541Z,7.95
2023-04-25T11:00:57.881Z,7.95
2023-04-25T11:06:01.856Z,8.47
2023-04-25T11:11:05.991Z,7.96
2023-04-25T11:16:12.589Z,8.61
2023-04-25T11:21:16.618Z,9.32
2023-04-25T11:26:21.284Z,9.27
2023-04-25T11:31:24.256Z,9.19
2023-04-25T11:36:27.913Z,9.09
2023-04-25T11:41:32.657Z,9.81
2023-04-25T11:46:36.498Z,9.62
2023-04-25T11:51:42.515Z,9.16
2023-04-25T11:56:47.340Z,8.90
2023-04-25T12:01:51.220Z,8.40
2023-04-25T12:06:55.399Z,8.40
2023-04-25T12:12:03.494Z,8.08
2023-04-25T12:17:08.997Z,8.23
2023-04-25T12:22:23.025Z,8.40
2023-04-25T12:27:28.220Z,8.23
2023-04-25T12:32:31.697Z,8.69
2023-04-25T12:37:34.459Z,8.57
2023-04-25T12:42:38.592Z,8.46
2023-04-25T12:47:41.466Z,8.34
2023-04-25T12:52:44.274Z,8.31
2023-04-25T12:57:48.347Z,9.55
2023-04-25T13:02:51.196Z,9.33
2023-04-25T13:07:53.972Z,9.08
2023-04-25T13:12:58.088Z,8.77
2023-04-25T13:18:00.956Z,8.71
2023-04-25T13:23:03.683Z,8.33
2023-04-25T13:28:07.749Z,8.38
2023-04-25T13:33:11.339Z,9.33
2023-04-25T13:38:14.201Z,9.60
2023-04-25T13:43:18.376Z,9.76
2023-04-25T13:48:21.798Z,9.85
2023-04-25T13:53:24.668Z,9.72
2023-04-25T13:58:28.795Z,9.53
2023-04-25T14:03:32.255Z,9.75
2023-04-25T14:08:35.082Z,10.44
2023-04-25T14:13:39.143Z,9.49
2023-04-25T14:18:41.874Z,9.91
2023-04-25T14:23:44.630Z,9.65
2023-04-25T14:28:48.765Z,9.47
2023-04-25T14:33:51.797Z,9.00
2023-04-25T14:38:54.945Z,8.78
2023-04-25T14:43:59.001Z,9.03
2023-04-25T14:49:01.891Z,8.49
2023-04-25T14:54:05.020Z,7.54
2023-04-25T14:59:09.093Z,7.41
2023-04-25T15:04:13.455Z,8.20
2023-04-25T15:09:17.145Z,8.49
2023-04-25T15:14:21.223Z,9.08
2023-04-25T15:19:23.926Z,8.93
2023-04-25T15:24:26.697Z,8.76
2023-04-25T15:29:30.967Z,8.74
2023-04-25T15:34:34.736Z,9.47
2023-04-25T15:39:38.602Z,9.28
2023-04-25T15:44:42.642Z,8.91
2023-04-25T15:49:45.351Z,9.01
2023-04-25T15:54:48.485Z,8.87
2023-04-25T15:59:52.958Z,8.51
2023-04-25T16:04:56.156Z,7.76
2023-04-25T16:09:59.105Z,6.29
2023-04-25T16:15:03.243Z,6.61
2023-04-25T16:20:10.205Z,7.69
2023-04-25T16:25:13.239Z,7.98
2023-04-25T16:30:17.566Z,8.23
2023-04-25T16:35:20.386Z,8.24
2023-04-25T16:40:23.224Z,8.82
2023-04-25T16:45:27.658Z,8.45
2023-04-25T16:50:30.401Z,8.78
2023-04-25T16:55:33.081Z,8.89
2023-04-25T17:00:37.307Z,8.41
2023-04-25T17:05:40.700Z,8.53
2023-04-25T17:10:43.577Z,8.12
2023-04-25T17:15:47.862Z,7.95
2023-04-25T17:20:50.672Z,7.82
2023-04-25T17:25:53.635Z,7.70
2023-04-25T17:30:58.482Z,7.59
2023-04-25T17:36:01.320Z,7.48
2023-04-25T17:41:04.132Z,7.60
2023-04-25T17:46:08.350Z,7.68
2023-04-25T17:51:11.160Z,7.67
2023-04-25T17:56:26.076Z,7.76
2023-04-25T18:01:31.522Z,7.37
2023-04-25T18:06:34.296Z,7.22
2023-04-25T18:11:36.990Z,6.94
2023-04-25T18:16:41.808Z,6.94
2023-04-25T18:21:45.364Z,6.78
2023-04-25T18:26:49.615Z,6.65
2023-04-25T18:31:53.884Z,6.47
2023-04-25T18:36:56.816Z,6.43
2023-04-25T18:42:05.506Z,6.18
2023-04-25T18:47:12.987Z,6.09
2023-04-25T18:52:16.083Z,6.11
2023-04-25T18:57:18.906Z,6.08
2023-04-25T19:02:23.386Z,5.99
2023-04-25T19:07:28.190Z,5.91
2023-04-25T19:12:33.210Z,5.87
2023-04-25T19:17:37.535Z,5.67
2023-04-25T19:22:40.800Z,5.80
2023-04-25T19:27:44.373Z,5.61
2023-04-25T19:32:48.563Z,5.54
2023-04-25T19:37:51.308Z,5.42
2023-04-25T19:42:53.997Z,5.38
2023-04-25T19:47:58.140Z,5.28
2023-04-25T19:53:01.133Z,5.32
2023-04-25T19:58:04.235Z,5.41
2023-04-25T20:03:10.634Z,5.41
2023-04-25T20:08:14.206Z,5.20
2023-04-25T20:13:17.543Z,5.01
2023-04-25T20:18:21.607Z,5.02
2023-04-25T20:23:24.344Z,5.05
2023-04-25T20:28:27.397Z,5.14
2023-04-25T20:33:31.508Z,5.07
2023-04-25T20:38:34.297Z,4.97
2023-04-25T20:43:38.140Z,4.84
2023-04-25T20:48:42.602Z,4.87
2023-04-25T20:53:45.322Z,4.80
2023-04-25T20:58:48.254Z,4.69
2023-04-25T21:03:52.996Z,4.65
2023-04-25T21:08:55.884Z,4.56
2023-04-25T21:13:58.563Z,4.54
2023-04-25T21:19:02.691Z,4.49
2023-04-25T21:24:05.632Z,4.41
2023-04-25T21:29:08.636Z,4.36
2023-04-25T21:34:12.809Z,4.34
2023-04-25T21:39:15.867Z,4.37
2023-04-25T21:44:18.616Z,4.33
2023-04-25T21:49:25.715Z,4.12
2023-04-25T21:54:28.458Z,4.03
2023-04-25T21:59:31.187Z,4.00
2023-04-25T22:04:35.715Z,3.92
2023-04-25T22:09:51.401Z,3.99
2023-04-25T22:14:56.885Z,3.83
2023-04-25T22:20:01.454Z,3.69
2023-04-25T22:25:04.522Z,3.69
2023-04-25T22:30:09.297Z,3.63
2023-04-25T22:35:13.826Z,3.48
2023-04-25T22:40:16.694Z,3.51
2023-04-25T22:45:19.440Z,3.51
2023-04-25T22:50:23.747Z,3.37
2023-04-25T22:55:27.030Z,3.34
2023-04-25T23:00:30.342Z,3.22
2023-04-25T23:05:34.459Z,3.22
2023-04-25T23:10:37.466Z,3.20
2023-04-25T23:15:40.327Z,3.14
2023-04-25T23:20:44.487Z,3.09
2023-04-25T23:25:47.300Z,3.03
2023-04-25T23:30:50.069Z,3.01
2023-04-25T23:35:54.138Z,2.99
2023-04-25T23:40:56.858Z,2.89
2023-04-25T23:45:59.629Z,2.92
2023-04-25T23:51:03.722Z,2.85
2023-04-25T23:56:06.679Z,2.81
